sensor_id;sensor_type;location;lat;lon;timestamp;P1;durP1;ratioP1;P2;durP2;ratioP2
31760;SDS011;18335;51.486;7.562;2023-05-10T00:00:01;1.73;;;0.95;;
31760;SDS011;18335;51.486;7.562;2023-05-10T00:02:38;0.90;;;0.70;;
31760;SDS011;18335;51.486;7.562;2023-05-10T00:05:05;1.77;;;0.73;;
31760;SDS011;18335;51.486;7.562;2023-05-10T00:07:33;2.53;;;1.00;;
31760;SDS011;18335;51.486;7.562;2023-05-10T00:09:59;1.65;;;1.35;;
31760;SDS011;18335;51.486;7.562;2023-05-10T00:12:26;2.00;;;1.00;;
31760;SDS011;18335;51.486;7.562;2023-05-10T00:14:54;1.35;;;0.90;;
31760;SDS011;18335;51.486;7.562;2023-05-10T00:17:21;2.08;;;0.90;;
31760;SDS011;18335;51.486;7.562;2023-05-10T00:19:48;1.80;;;1.10;;
31760;SDS011;18335;51.486;7.562;2023-05-10T00:22:15;1.83;;;0.77;;
31760;SDS011;18335;51.486;7.562;2023-05-10T00:24:41;2.67;;;1.30;;
31760;SDS011;18335;51.486;7.562;2023-05-10T00:27:08;2.20;;;1.20;;
31760;SDS011;18335;51.486;7.562;2023-05-10T00:29:35;2.83;;;1.20;;
31760;SDS011;18335;51.486;7.562;2023-05-10T00:32:03;3.65;;;1.48;;
31760;SDS011;18335;51.486;7.562;2023-05-10T00:34:31;4.78;;;1.95;;
31760;SDS011;18335;51.486;7.562;2023-05-10T00:36:58;3.13;;;1.60;;
31760;SDS011;18335;51.486;7.562;2023-05-10T00:39:26;4.72;;;1.92;;
31760;SDS011;18335;51.486;7.562;2023-05-10T00:41:53;3.92;;;1.80;;
31760;SDS011;18335;51.486;7.562;2023-05-10T00:44:21;3.58;;;1.88;;
31760;SDS011;18335;51.486;7.562;2023-05-10T00:46:47;4.18;;;2.35;;
31760;SDS011;18335;51.486;7.562;2023-05-10T00:49:16;5.35;;;2.38;;
31760;SDS011;18335;51.486;7.562;2023-05-10T00:51:44;6.47;;;2.30;;
31760;SDS011;18335;51.486;7.562;2023-05-10T00:54:11;6.88;;;2.83;;
31760;SDS011;18335;51.486;7.562;2023-05-10T00:56:40;7.35;;;2.88;;
31760;SDS011;18335;51.486;7.562;2023-05-10T00:59:07;4.65;;;2.30;;
31760;SDS011;18335;51.486;7.562;2023-05-10T01:01:35;7.00;;;3.35;;
31760;SDS011;18335;51.486;7.562;2023-05-10T01:04:02;9.18;;;3.22;;
31760;SDS011;18335;51.486;7.562;2023-05-10T01:06:30;7.32;;;3.50;;
31760;SDS011;18335;51.486;7.562;2023-05-10T01:08:57;9.10;;;3.65;;
31760;SDS011;18335;51.486;7.562;2023-05-10T01:11:24;6.22;;;3.03;;
31760;SDS011;18335;51.486;7.562;2023-05-10T01:13:52;6.65;;;3.40;;
31760;SDS011;18335;51.486;7.562;2023-05-10T01:16:22;8.55;;;3.42;;
31760;SDS011;18335;51.486;7.562;2023-05-10T01:18:49;6.10;;;3.00;;
31760;SDS011;18335;51.486;7.562;2023-05-10T01:21:21;7.85;;;3.92;;
31760;SDS011;18335;51.486;7.562;2023-05-10T01:24:09;8.52;;;4.45;;
31760;SDS011;18335;51.486;7.562;2023-05-10T01:32:37;7.57;;;3.72;;
31760;SDS011;18335;51.486;7.562;2023-05-10T01:35:10;8.05;;;4.47;;
31760;SDS011;18335;51.486;7.562;2023-05-10T01:37:45;8.13;;;3.92;;
31760;SDS011;18335;51.486;7.562;2023-05-10T01:40:17;8.80;;;4.40;;
31760;SDS011;18335;51.486;7.562;2023-05-10T01:42:50;8.88;;;4.65;;
31760;SDS011;18335;51.486;7.562;2023-05-10T01:45:23;11.10;;;5.07;;
31760;SDS011;18335;51.486;7.562;2023-05-10T01:48:01;11.73;;;5.22;;
31760;SDS011;18335;51.486;7.562;2023-05-10T01:50:32;10.40;;;5.72;;
31760;SDS011;18335;51.486;7.562;2023-05-10T01:53:01;9.80;;;5.35;;
31760;SDS011;18335;51.486;7.562;2023-05-10T01:55:32;10.35;;;5.20;;
31760;SDS011;18335;51.486;7.562;2023-05-10T01:58:06;9.65;;;5.43;;
31760;SDS011;18335;51.486;7.562;2023-05-10T02:00:35;11.02;;;6.47;;
31760;SDS011;18335;51.486;7.562;2023-05-10T02:03:07;10.35;;;5.65;;
31760;SDS011;18335;51.486;7.562;2023-05-10T02:05:36;11.23;;;5.32;;
31760;SDS011;18335;51.486;7.562;2023-05-10T02:08:05;11.07;;;5.28;;
31760;SDS011;18335;51.486;7.562;2023-05-10T02:10:36;9.48;;;5.32;;
31760;SDS011;18335;51.486;7.562;2023-05-10T02:13:04;9.98;;;5.70;;
31760;SDS011;18335;51.486;7.562;2023-05-10T02:15:33;13.77;;;5.40;;
31760;SDS011;18335;51.486;7.562;2023-05-10T02:18:02;9.50;;;4.70;;
31760;SDS011;18335;51.486;7.562;2023-05-10T02:20:32;12.27;;;5.57;;
31760;SDS011;18335;51.486;7.562;2023-05-10T02:23:01;12.57;;;5.13;;
31760;SDS011;18335;51.486;7.562;2023-05-10T02:25:30;9.93;;;5.28;;
31760;SDS011;18335;51.486;7.562;2023-05-10T02:27:59;8.90;;;5.30;;
31760;SDS011;18335;51.486;7.562;2023-05-10T02:30:28;9.82;;;5.13;;
31760;SDS011;18335;51.486;7.562;2023-05-10T02:32:58;11.05;;;4.93;;
31760;SDS011;18335;51.486;7.562;2023-05-10T02:35:26;9.65;;;5.18;;
31760;SDS011;18335;51.486;7.562;2023-05-10T02:37:55;10.57;;;5.03;;
31760;SDS011;18335;51.486;7.562;2023-05-10T02:40:24;12.27;;;6.30;;
31760;SDS011;18335;51.486;7.562;2023-05-10T02:42:55;11.25;;;4.85;;
31760;SDS011;18335;51.486;7.562;2023-05-10T02:45:26;11.27;;;5.07;;
31760;SDS011;18335;51.486;7.562;2023-05-10T02:47:55;9.00;;;4.35;;
31760;SDS011;18335;51.486;7.562;2023-05-10T02:50:23;8.07;;;3.53;;
31760;SDS011;18335;51.486;7.562;2023-05-10T02:52:54;6.40;;;3.17;;
31760;SDS011;18335;51.486;7.562;2023-05-10T02:55:28;6.45;;;3.00;;
31760;SDS011;18335;51.486;7.562;2023-05-10T02:57:59;8.52;;;2.95;;
31760;SDS011;18335;51.486;7.562;2023-05-10T03:00:27;5.88;;;2.65;;
31760;SDS011;18335;51.486;7.562;2023-05-10T03:02:55;5.97;;;2.50;;
31760;SDS011;18335;51.486;7.562;2023-05-10T03:05:21;4.57;;;2.40;;
31760;SDS011;18335;51.486;7.562;2023-05-10T03:07:48;6.30;;;2.25;;
31760;SDS011;18335;51.486;7.562;2023-05-10T03:10:17;6.32;;;2.53;;
31760;SDS011;18335;51.486;7.562;2023-05-10T03:12:51;4.78;;;2.13;;
31760;SDS011;18335;51.486;7.562;2023-05-10T03:17:55;4.50;;;1.90;;
31760;SDS011;18335;51.486;7.562;2023-05-10T03:20:25;4.88;;;1.88;;
31760;SDS011;18335;51.486;7.562;2023-05-10T03:22:59;4.95;;;2.55;;
31760;SDS011;18335;51.486;7.562;2023-05-10T03:25:32;5.43;;;2.25;;
31760;SDS011;18335;51.486;7.562;2023-05-10T03:28:01;4.75;;;2.08;;
31760;SDS011;18335;51.486;7.562;2023-05-10T03:30:30;5.07;;;2.20;;
31760;SDS011;18335;51.486;7.562;2023-05-10T03:32:57;5.13;;;2.20;;
31760;SDS011;18335;51.486;7.562;2023-05-10T03:35:24;6.72;;;2.45;;
31760;SDS011;18335;51.486;7.562;2023-05-10T03:37:51;4.65;;;2.22;;
31760;SDS011;18335;51.486;7.562;2023-05-10T03:40:18;6.18;;;2.33;;
31760;SDS011;18335;51.486;7.562;2023-05-10T03:42:46;5.60;;;2.40;;
31760;SDS011;18335;51.486;7.562;2023-05-10T03:45:12;5.65;;;2.35;;
31760;SDS011;18335;51.486;7.562;2023-05-10T03:47:39;5.68;;;1.85;;
31760;SDS011;18335;51.486;7.562;2023-05-10T03:50:07;4.22;;;1.80;;
31760;SDS011;18335;51.486;7.562;2023-05-10T03:52:35;6.63;;;2.38;;
31760;SDS011;18335;51.486;7.562;2023-05-10T03:55:04;4.85;;;2.10;;
31760;SDS011;18335;51.486;7.562;2023-05-10T03:57:32;4.43;;;2.05;;
31760;SDS011;18335;51.486;7.562;2023-05-10T04:00:02;3.55;;;1.80;;
31760;SDS011;18335;51.486;7.562;2023-05-10T04:02:39;4.78;;;1.67;;
31760;SDS011;18335;51.486;7.562;2023-05-10T04:05:09;4.65;;;2.20;;
31760;SDS011;18335;51.486;7.562;2023-05-10T04:07:36;7.82;;;2.60;;
31760;SDS011;18335;51.486;7.562;2023-05-10T04:10:03;6.18;;;2.95;;
31760;SDS011;18335;51.486;7.562;2023-05-10T04:12:30;9.55;;;4.22;;
31760;SDS011;18335;51.486;7.562;2023-05-10T04:14:57;11.75;;;6.20;;
31760;SDS011;18335;51.486;7.562;2023-05-10T04:17:25;9.23;;;5.07;;
31760;SDS011;18335;51.486;7.562;2023-05-10T04:19:52;12.30;;;6.43;;
31760;SDS011;18335;51.486;7.562;2023-05-10T04:22:19;11.93;;;6.90;;
31760;SDS011;18335;51.486;7.562;2023-05-10T04:24:46;13.13;;;7.38;;
31760;SDS011;18335;51.486;7.562;2023-05-10T04:27:13;13.75;;;7.90;;
31760;SDS011;18335;51.486;7.562;2023-05-10T04:29:40;12.93;;;7.45;;
31760;SDS011;18335;51.486;7.562;2023-05-10T04:32:06;13.57;;;8.23;;
31760;SDS011;18335;51.486;7.562;2023-05-10T04:34:36;13.30;;;8.23;;
31760;SDS011;18335;51.486;7.562;2023-05-10T04:37:03;15.80;;;9.35;;
31760;SDS011;18335;51.486;7.562;2023-05-10T04:39:30;20.13;;;11.43;;
31760;SDS011;18335;51.486;7.562;2023-05-10T04:41:57;19.30;;;9.50;;
31760;SDS011;18335;51.486;7.562;2023-05-10T04:44:24;16.23;;;9.80;;
31760;SDS011;18335;51.486;7.562;2023-05-10T04:46:50;16.88;;;9.73;;
31760;SDS011;18335;51.486;7.562;2023-05-10T04:49:18;15.60;;;8.95;;
31760;SDS011;18335;51.486;7.562;2023-05-10T04:51:46;16.02;;;8.48;;
31760;SDS011;18335;51.486;7.562;2023-05-10T04:54:13;17.38;;;9.20;;
31760;SDS011;18335;51.486;7.562;2023-05-10T04:56:40;15.65;;;8.45;;
31760;SDS011;18335;51.486;7.562;2023-05-10T04:59:07;14.27;;;8.43;;
31760;SDS011;18335;51.486;7.562;2023-05-10T05:01:34;16.60;;;8.07;;
31760;SDS011;18335;51.486;7.562;2023-05-10T05:04:01;15.20;;;8.35;;
31760;SDS011;18335;51.486;7.562;2023-05-10T05:06:28;13.68;;;7.38;;
31760;SDS011;18335;51.486;7.562;2023-05-10T05:08:56;14.25;;;7.15;;
31760;SDS011;18335;51.486;7.562;2023-05-10T05:11:22;14.13;;;7.03;;
31760;SDS011;18335;51.486;7.562;2023-05-10T05:13:50;15.05;;;8.02;;
31760;SDS011;18335;51.486;7.562;2023-05-10T05:16:17;15.30;;;9.48;;
31760;SDS011;18335;51.486;7.562;2023-05-10T05:18:44;15.18;;;8.65;;
31760;SDS011;18335;51.486;7.562;2023-05-10T05:21:14;14.98;;;9.02;;
31760;SDS011;18335;51.486;7.562;2023-05-10T05:23:41;18.52;;;9.27;;
31760;SDS011;18335;51.486;7.562;2023-05-10T05:26:10;16.45;;;10.32;;
31760;SDS011;18335;51.486;7.562;2023-05-10T05:28:37;16.77;;;10.20;;
31760;SDS011;18335;51.486;7.562;2023-05-10T05:31:04;19.45;;;10.88;;
31760;SDS011;18335;51.486;7.562;2023-05-10T05:33:32;20.40;;;12.82;;
31760;SDS011;18335;51.486;7.562;2023-05-10T05:36:00;20.13;;;11.40;;
31760;SDS011;18335;51.486;7.562;2023-05-10T05:38:27;19.65;;;12.52;;
31760;SDS011;18335;51.486;7.562;2023-05-10T05:40:54;24.90;;;14.95;;
31760;SDS011;18335;51.486;7.562;2023-05-10T05:43:22;26.55;;;14.75;;
31760;SDS011;18335;51.486;7.562;2023-05-10T05:45:49;24.85;;;16.45;;
31760;SDS011;18335;51.486;7.562;2023-05-10T05:48:16;25.77;;;16.25;;
31760;SDS011;18335;51.486;7.562;2023-05-10T05:50:42;27.48;;;16.67;;
31760;SDS011;18335;51.486;7.562;2023-05-10T05:53:09;30.27;;;18.55;;
31760;SDS011;18335;51.486;7.562;2023-05-10T05:55:36;28.02;;;17.60;;
31760;SDS011;18335;51.486;7.562;2023-05-10T05:58:03;32.30;;;19.17;;
31760;SDS011;18335;51.486;7.562;2023-05-10T06:00:31;31.23;;;18.73;;
31760;SDS011;18335;51.486;7.562;2023-05-10T06:02:57;34.03;;;18.58;;
31760;SDS011;18335;51.486;7.562;2023-05-10T06:05:24;30.70;;;18.58;;
31760;SDS011;18335;51.486;7.562;2023-05-10T06:07:51;30.17;;;19.77;;
31760;SDS011;18335;51.486;7.562;2023-05-10T06:10:17;29.60;;;18.58;;
31760;SDS011;18335;51.486;7.562;2023-05-10T06:12:44;33.17;;;20.33;;
31760;SDS011;18335;51.486;7.562;2023-05-10T06:15:11;32.60;;;20.60;;
31760;SDS011;18335;51.486;7.562;2023-05-10T06:17:39;29.63;;;18.70;;
31760;SDS011;18335;51.486;7.562;2023-05-10T06:20:06;32.58;;;20.02;;
31760;SDS011;18335;51.486;7.562;2023-05-10T06:22:34;31.08;;;19.77;;
31760;SDS011;18335;51.486;7.562;2023-05-10T06:25:01;33.42;;;21.85;;
31760;SDS011;18335;51.486;7.562;2023-05-10T06:27:28;37.00;;;22.23;;
31760;SDS011;18335;51.486;7.562;2023-05-10T06:29:55;34.92;;;20.55;;
31760;SDS011;18335;51.486;7.562;2023-05-10T06:32:21;30.77;;;18.98;;
31760;SDS011;18335;51.486;7.562;2023-05-10T06:34:49;39.00;;;21.73;;
31760;SDS011;18335;51.486;7.562;2023-05-10T06:37:16;33.20;;;21.13;;
31760;SDS011;18335;51.486;7.562;2023-05-10T06:39:43;38.05;;;22.65;;
31760;SDS011;18335;51.486;7.562;2023-05-10T06:42:10;34.45;;;21.55;;
31760;SDS011;18335;51.486;7.562;2023-05-10T06:44:36;37.60;;;21.27;;
31760;SDS011;18335;51.486;7.562;2023-05-10T06:47:03;33.13;;;21.20;;
31760;SDS011;18335;51.486;7.562;2023-05-10T06:49:30;39.65;;;22.35;;
31760;SDS011;18335;51.486;7.562;2023-05-10T06:51:58;37.30;;;21.90;;
31760;SDS011;18335;51.486;7.562;2023-05-10T06:54:25;37.75;;;22.55;;
31760;SDS011;18335;51.486;7.562;2023-05-10T06:56:51;36.95;;;22.13;;
31760;SDS011;18335;51.486;7.562;2023-05-10T06:59:19;35.33;;;23.30;;
31760;SDS011;18335;51.486;7.562;2023-05-10T07:01:46;37.00;;;23.50;;
31760;SDS011;18335;51.486;7.562;2023-05-10T07:04:13;39.60;;;23.33;;
31760;SDS011;18335;51.486;7.562;2023-05-10T07:06:40;40.15;;;23.25;;
31760;SDS011;18335;51.486;7.562;2023-05-10T07:09:08;36.63;;;23.00;;
31760;SDS011;18335;51.486;7.562;2023-05-10T07:11:35;36.45;;;22.52;;
31760;SDS011;18335;51.486;7.562;2023-05-10T07:14:02;38.60;;;23.38;;
31760;SDS011;18335;51.486;7.562;2023-05-10T07:16:29;38.85;;;23.55;;
31760;SDS011;18335;51.486;7.562;2023-05-10T07:18:56;35.13;;;22.30;;
31760;SDS011;18335;51.486;7.562;2023-05-10T07:21:23;38.97;;;23.55;;
31760;SDS011;18335;51.486;7.562;2023-05-10T07:23:50;42.20;;;23.35;;
31760;SDS011;18335;51.486;7.562;2023-05-10T07:26:18;40.95;;;24.17;;
31760;SDS011;18335;51.486;7.562;2023-05-10T07:28:46;38.60;;;23.75;;
31760;SDS011;18335;51.486;7.562;2023-05-10T07:31:12;37.50;;;22.90;;
31760;SDS011;18335;51.486;7.562;2023-05-10T07:33:39;37.38;;;24.40;;
31760;SDS011;18335;51.486;7.562;2023-05-10T07:36:06;40.83;;;26.98;;
31760;SDS011;18335;51.486;7.562;2023-05-10T07:38:33;41.85;;;25.88;;
31760;SDS011;18335;51.486;7.562;2023-05-10T07:40:59;37.95;;;24.83;;
31760;SDS011;18335;51.486;7.562;2023-05-10T07:43:27;39.83;;;24.63;;
31760;SDS011;18335;51.486;7.562;2023-05-10T07:45:54;36.33;;;23.35;;
31760;SDS011;18335;51.486;7.562;2023-05-10T07:48:22;36.58;;;23.50;;
31760;SDS011;18335;51.486;7.562;2023-05-10T07:50:49;29.48;;;20.35;;
31760;SDS011;18335;51.486;7.562;2023-05-10T07:53:16;30.38;;;21.50;;
31760;SDS011;18335;51.486;7.562;2023-05-10T07:55:43;32.30;;;20.65;;
31760;SDS011;18335;51.486;7.562;2023-05-10T07:58:11;33.67;;;19.85;;
31760;SDS011;18335;51.486;7.562;2023-05-10T08:00:39;31.10;;;18.58;;
31760;SDS011;18335;51.486;7.562;2023-05-10T08:03:06;34.95;;;19.35;;
31760;SDS011;18335;51.486;7.562;2023-05-10T08:05:33;31.45;;;18.83;;
31760;SDS011;18335;51.486;7.562;2023-05-10T08:08:00;29.00;;;17.25;;
31760;SDS011;18335;51.486;7.562;2023-05-10T08:10:27;25.00;;;16.23;;
31760;SDS011;18335;51.486;7.562;2023-05-10T08:12:54;29.17;;;16.55;;
31760;SDS011;18335;51.486;7.562;2023-05-10T08:15:20;27.95;;;16.80;;
31760;SDS011;18335;51.486;7.562;2023-05-10T08:17:48;26.92;;;16.75;;
31760;SDS011;18335;51.486;7.562;2023-05-10T08:20:15;23.58;;;15.57;;
31760;SDS011;18335;51.486;7.562;2023-05-10T08:22:44;27.33;;;17.48;;
31760;SDS011;18335;51.486;7.562;2023-05-10T08:25:11;29.08;;;17.08;;
31760;SDS011;18335;51.486;7.562;2023-05-10T08:27:38;28.60;;;16.23;;
31760;SDS011;18335;51.486;7.562;2023-05-10T08:30:05;32.97;;;19.15;;
31760;SDS011;18335;51.486;7.562;2023-05-10T08:32:33;31.23;;;19.92;;
31760;SDS011;18335;51.486;7.562;2023-05-10T08:35:01;31.42;;;19.58;;
31760;SDS011;18335;51.486;7.562;2023-05-10T08:37:29;29.73;;;19.65;;
31760;SDS011;18335;51.486;7.562;2023-05-10T08:39:57;33.70;;;20.38;;
31760;SDS011;18335;51.486;7.562;2023-05-10T08:42:24;30.65;;;20.27;;
31760;SDS011;18335;51.486;7.562;2023-05-10T08:44:55;30.60;;;19.42;;
31760;SDS011;18335;51.486;7.562;2023-05-10T08:47:23;24.50;;;16.25;;
31760;SDS011;18335;51.486;7.562;2023-05-10T08:49:51;22.35;;;13.95;;
31760;SDS011;18335;51.486;7.562;2023-05-10T08:52:20;20.05;;;12.20;;
31760;SDS011;18335;51.486;7.562;2023-05-10T08:54:50;18.13;;;10.65;;
31760;SDS011;18335;51.486;7.562;2023-05-10T08:57:17;19.13;;;10.73;;
31760;SDS011;18335;51.486;7.562;2023-05-10T08:59:46;19.00;;;10.95;;
31760;SDS011;18335;51.486;7.562;2023-05-10T09:02:12;19.48;;;11.88;;
31760;SDS011;18335;51.486;7.562;2023-05-10T09:04:41;21.50;;;12.05;;
31760;SDS011;18335;51.486;7.562;2023-05-10T09:07:07;19.05;;;11.75;;
31760;SDS011;18335;51.486;7.562;2023-05-10T09:09:36;19.35;;;10.30;;
31760;SDS011;18335;51.486;7.562;2023-05-10T09:12:03;18.30;;;9.23;;
31760;SDS011;18335;51.486;7.562;2023-05-10T09:14:30;16.45;;;9.15;;
31760;SDS011;18335;51.486;7.562;2023-05-10T09:17:01;19.00;;;9.77;;
31760;SDS011;18335;51.486;7.562;2023-05-10T09:19:28;18.73;;;9.65;;
31760;SDS011;18335;51.486;7.562;2023-05-10T09:21:55;18.80;;;9.55;;
31760;SDS011;18335;51.486;7.562;2023-05-10T09:24:24;20.23;;;10.60;;
31760;SDS011;18335;51.486;7.562;2023-05-10T09:26:53;18.85;;;10.95;;
31760;SDS011;18335;51.486;7.562;2023-05-10T09:29:19;18.55;;;11.52;;
31760;SDS011;18335;51.486;7.562;2023-05-10T09:31:47;20.67;;;11.25;;
31760;SDS011;18335;51.486;7.562;2023-05-10T09:34:17;21.20;;;12.60;;
31760;SDS011;18335;51.486;7.562;2023-05-10T09:36:55;24.80;;;12.68;;
31760;SDS011;18335;51.486;7.562;2023-05-10T09:42:09;22.63;;;13.48;;
31760;SDS011;18335;51.486;7.562;2023-05-10T09:44:36;24.70;;;13.50;;
31760;SDS011;18335;51.486;7.562;2023-05-10T09:47:04;24.60;;;13.57;;
31760;SDS011;18335;51.486;7.562;2023-05-10T09:49:31;24.35;;;14.30;;
31760;SDS011;18335;51.486;7.562;2023-05-10T09:51:59;23.08;;;13.48;;
31760;SDS011;18335;51.486;7.562;2023-05-10T09:54:27;23.92;;;13.32;;
31760;SDS011;18335;51.486;7.562;2023-05-10T09:56:54;21.95;;;13.13;;
31760;SDS011;18335;51.486;7.562;2023-05-10T09:59:23;24.00;;;14.48;;
31760;SDS011;18335;51.486;7.562;2023-05-10T10:01:52;24.17;;;13.48;;
31760;SDS011;18335;51.486;7.562;2023-05-10T10:04:19;22.00;;;14.13;;
31760;SDS011;18335;51.486;7.562;2023-05-10T10:06:47;23.75;;;11.50;;
31760;SDS011;18335;51.486;7.562;2023-05-10T10:09:25;18.27;;;8.93;;
31760;SDS011;18335;51.486;7.562;2023-05-10T10:11:53;13.05;;;6.95;;
31760;SDS011;18335;51.486;7.562;2023-05-10T10:14:20;15.20;;;6.97;;
31760;SDS011;18335;51.486;7.562;2023-05-10T10:16:49;14.80;;;6.88;;
31760;SDS011;18335;51.486;7.562;2023-05-10T10:19:16;10.80;;;6.05;;
31760;SDS011;18335;51.486;7.562;2023-05-10T10:21:43;13.52;;;7.60;;
31760;SDS011;18335;51.486;7.562;2023-05-10T10:24:10;14.05;;;7.72;;
31760;SDS011;18335;51.486;7.562;2023-05-10T10:26:36;13.00;;;7.10;;
31760;SDS011;18335;51.486;7.562;2023-05-10T10:29:07;18.23;;;8.05;;
31760;SDS011;18335;51.486;7.562;2023-05-10T10:31:47;14.85;;;7.45;;
31760;SDS011;18335;51.486;7.562;2023-05-10T10:34:24;14.48;;;8.45;;
31760;SDS011;18335;51.486;7.562;2023-05-10T10:36:54;11.43;;;5.90;;
31760;SDS011;18335;51.486;7.562;2023-05-10T10:39:23;13.05;;;4.97;;
31760;SDS011;18335;51.486;7.562;2023-05-10T10:41:52;11.38;;;5.82;;
31760;SDS011;18335;51.486;7.562;2023-05-10T10:50:05;13.23;;;7.55;;
31760;SDS011;18335;51.486;7.562;2023-05-10T10:52:33;15.35;;;7.22;;
31760;SDS011;18335;51.486;7.562;2023-05-10T10:55:01;15.60;;;6.35;;
31760;SDS011;18335;51.486;7.562;2023-05-10T10:57:32;15.55;;;7.65;;
31760;SDS011;18335;51.486;7.562;2023-05-10T11:00:19;17.70;;;8.80;;
31760;SDS011;18335;51.486;7.562;2023-05-10T11:02:49;18.10;;;9.43;;
31760;SDS011;18335;51.486;7.562;2023-05-10T11:05:33;17.02;;;8.90;;
31760;SDS011;18335;51.486;7.562;2023-05-10T11:08:06;15.27;;;8.10;;
31760;SDS011;18335;51.486;7.562;2023-05-10T11:10:35;21.27;;;7.93;;
31760;SDS011;18335;51.486;7.562;2023-05-10T11:13:02;18.02;;;10.05;;
31760;SDS011;18335;51.486;7.562;2023-05-10T11:15:31;22.15;;;12.27;;
31760;SDS011;18335;51.486;7.562;2023-05-10T11:18:01;22.90;;;13.07;;
31760;SDS011;18335;51.486;7.562;2023-05-10T11:20:43;24.60;;;13.30;;
31760;SDS011;18335;51.486;7.562;2023-05-10T11:23:12;28.83;;;15.38;;
31760;SDS011;18335;51.486;7.562;2023-05-10T11:25:41;24.52;;;13.48;;
31760;SDS011;18335;51.486;7.562;2023-05-10T11:28:10;24.08;;;13.50;;
31760;SDS011;18335;51.486;7.562;2023-05-10T11:30:37;23.85;;;12.88;;
31760;SDS011;18335;51.486;7.562;2023-05-10T11:33:06;19.83;;;10.90;;
31760;SDS011;18335;51.486;7.562;2023-05-10T11:35:36;22.00;;;11.68;;
31760;SDS011;18335;51.486;7.562;2023-05-10T11:38:05;18.58;;;10.25;;
31760;SDS011;18335;51.486;7.562;2023-05-10T11:40:32;20.13;;;9.48;;
31760;SDS011;18335;51.486;7.562;2023-05-10T11:42:59;20.98;;;11.18;;
31760;SDS011;18335;51.486;7.562;2023-05-10T11:45:26;21.45;;;10.75;;
31760;SDS011;18335;51.486;7.562;2023-05-10T11:47:54;21.80;;;11.02;;
31760;SDS011;18335;51.486;7.562;2023-05-10T11:50:22;19.88;;;9.75;;
31760;SDS011;18335;51.486;7.562;2023-05-10T11:52:50;18.92;;;10.25;;
31760;SDS011;18335;51.486;7.562;2023-05-10T11:55:18;16.67;;;8.85;;
31760;SDS011;18335;51.486;7.562;2023-05-10T11:57:52;15.50;;;8.38;;
31760;SDS011;18335;51.486;7.562;2023-05-10T12:00:19;16.05;;;8.48;;
31760;SDS011;18335;51.486;7.562;2023-05-10T12:02:46;18.13;;;9.30;;
31760;SDS011;18335;51.486;7.562;2023-05-10T12:05:13;16.42;;;10.02;;
31760;SDS011;18335;51.486;7.562;2023-05-10T12:07:41;19.98;;;11.82;;
31760;SDS011;18335;51.486;7.562;2023-05-10T12:10:08;17.80;;;10.82;;
31760;SDS011;18335;51.486;7.562;2023-05-10T12:12:38;17.45;;;11.48;;
31760;SDS011;18335;51.486;7.562;2023-05-10T12:15:10;21.58;;;12.82;;
31760;SDS011;18335;51.486;7.562;2023-05-10T12:17:37;20.48;;;12.43;;
31760;SDS011;18335;51.486;7.562;2023-05-10T12:20:15;21.05;;;13.48;;
31760;SDS011;18335;51.486;7.562;2023-05-10T12:22:48;21.45;;;13.88;;
31760;SDS011;18335;51.486;7.562;2023-05-10T12:25:17;23.75;;;14.07;;
31760;SDS011;18335;51.486;7.562;2023-05-10T12:27:48;21.60;;;12.57;;
31760;SDS011;18335;51.486;7.562;2023-05-10T12:30:21;22.13;;;12.73;;
31760;SDS011;18335;51.486;7.562;2023-05-10T12:32:49;18.42;;;12.48;;
31760;SDS011;18335;51.486;7.562;2023-05-10T12:35:16;20.13;;;11.10;;
31760;SDS011;18335;51.486;7.562;2023-05-10T12:37:46;23.08;;;13.18;;
31760;SDS011;18335;51.486;7.562;2023-05-10T12:40:14;21.02;;;12.15;;
31760;SDS011;18335;51.486;7.562;2023-05-10T12:42:40;16.48;;;11.15;;
31760;SDS011;18335;51.486;7.562;2023-05-10T12:45:07;17.83;;;11.48;;
31760;SDS011;18335;51.486;7.562;2023-05-10T12:47:35;17.65;;;10.85;;
31760;SDS011;18335;51.486;7.562;2023-05-10T12:50:03;17.85;;;10.80;;
31760;SDS011;18335;51.486;7.562;2023-05-10T12:52:30;15.48;;;9.73;;
31760;SDS011;18335;51.486;7.562;2023-05-10T12:54:59;14.63;;;9.60;;
31760;SDS011;18335;51.486;7.562;2023-05-10T12:57:26;16.73;;;8.82;;
31760;SDS011;18335;51.486;7.562;2023-05-10T12:59:53;17.77;;;9.88;;
31760;SDS011;18335;51.486;7.562;2023-05-10T13:02:20;16.30;;;8.57;;
31760;SDS011;18335;51.486;7.562;2023-05-10T13:04:48;17.27;;;9.20;;
31760;SDS011;18335;51.486;7.562;2023-05-10T13:07:15;13.90;;;8.80;;
31760;SDS011;18335;51.486;7.562;2023-05-10T13:09:42;17.05;;;9.73;;
31760;SDS011;18335;51.486;7.562;2023-05-10T13:12:10;16.52;;;10.07;;
31760;SDS011;18335;51.486;7.562;2023-05-10T13:14:37;15.07;;;8.80;;
31760;SDS011;18335;51.486;7.562;2023-05-10T13:17:05;13.48;;;9.10;;
31760;SDS011;18335;51.486;7.562;2023-05-10T13:19:32;13.70;;;7.40;;
31760;SDS011;18335;51.486;7.562;2023-05-10T13:21:59;13.32;;;7.43;;
31760;SDS011;18335;51.486;7.562;2023-05-10T13:24:26;13.45;;;7.22;;
31760;SDS011;18335;51.486;7.562;2023-05-10T13:26:52;13.20;;;7.05;;
31760;SDS011;18335;51.486;7.562;2023-05-10T13:29:21;16.00;;;8.73;;
31760;SDS011;18335;51.486;7.562;2023-05-10T13:31:48;14.27;;;8.82;;
31760;SDS011;18335;51.486;7.562;2023-05-10T13:34:15;13.48;;;8.05;;
31760;SDS011;18335;51.486;7.562;2023-05-10T13:36:42;11.85;;;6.45;;
31760;SDS011;18335;51.486;7.562;2023-05-10T13:39:08;11.95;;;6.65;;
31760;SDS011;18335;51.486;7.562;2023-05-10T13:41:36;13.32;;;7.05;;
31760;SDS011;18335;51.486;7.562;2023-05-10T13:44:03;13.15;;;7.05;;
31760;SDS011;18335;51.486;7.562;2023-05-10T13:46:31;12.75;;;7.43;;
31760;SDS011;18335;51.486;7.562;2023-05-10T13:48:57;13.55;;;7.90;;
31760;SDS011;18335;51.486;7.562;2023-05-10T13:51:24;12.55;;;8.13;;
31760;SDS011;18335;51.486;7.562;2023-05-10T13:53:51;15.43;;;8.68;;
31760;SDS011;18335;51.486;7.562;2023-05-10T13:56:18;13.07;;;8.05;;
31760;SDS011;18335;51.486;7.562;2023-05-10T13:58:44;12.30;;;7.35;;
31760;SDS011;18335;51.486;7.562;2023-05-10T14:01:11;10.25;;;6.68;;
31760;SDS011;18335;51.486;7.562;2023-05-10T14:03:39;12.65;;;6.95;;
31760;SDS011;18335;51.486;7.562;2023-05-10T14:06:06;14.35;;;7.35;;
31760;SDS011;18335;51.486;7.562;2023-05-10T14:08:34;13.70;;;8.25;;
31760;SDS011;18335;51.486;7.562;2023-05-10T14:11:01;13.82;;;8.50;;
31760;SDS011;18335;51.486;7.562;2023-05-10T14:13:28;13.88;;;8.80;;
31760;SDS011;18335;51.486;7.562;2023-05-10T14:15:55;13.00;;;8.23;;
31760;SDS011;18335;51.486;7.562;2023-05-10T14:18:22;13.27;;;8.65;;
31760;SDS011;18335;51.486;7.562;2023-05-10T14:20:51;13.45;;;8.10;;
31760;SDS011;18335;51.486;7.562;2023-05-10T14:23:18;12.80;;;9.00;;
31760;SDS011;18335;51.486;7.562;2023-05-10T14:25:49;11.63;;;7.82;;
31760;SDS011;18335;51.486;7.562;2023-05-10T14:28:16;13.82;;;9.15;;
31760;SDS011;18335;51.486;7.562;2023-05-10T14:30:43;12.70;;;8.27;;
31760;SDS011;18335;51.486;7.562;2023-05-10T14:33:10;13.57;;;8.95;;
31760;SDS011;18335;51.486;7.562;2023-05-10T14:35:36;12.10;;;8.15;;
31760;SDS011;18335;51.486;7.562;2023-05-10T14:38:04;12.68;;;8.02;;
31760;SDS011;18335;51.486;7.562;2023-05-10T14:40:31;12.68;;;8.05;;
31760;SDS011;18335;51.486;7.562;2023-05-10T14:42:58;10.38;;;7.13;;
31760;SDS011;18335;51.486;7.562;2023-05-10T14:45:24;11.05;;;8.15;;
31760;SDS011;18335;51.486;7.562;2023-05-10T14:47:52;12.93;;;7.90;;
31760;SDS011;18335;51.486;7.562;2023-05-10T14:50:19;12.18;;;7.47;;
31760;SDS011;18335;51.486;7.562;2023-05-10T14:52:46;11.73;;;7.68;;
31760;SDS011;18335;51.486;7.562;2023-05-10T14:59:20;11.43;;;7.00;;